Time;durP1;ratioP1;P1;durP2;ratioP2;P2;SDS_P1;SDS_P2;PMS_P1;PMS_P2;Temp;Humidity;BMP_temperature;BMP_pressure;BME280_temperature;BME280_humidity;BME280_pressure;Samples;Min_cycle;Max_cycle;Signal;HPM_P1;HPM_P2
2022/12/31 00:00:55;;;;;;;0.10;0.10;;;;;;;;;;6265542;22;20526;-83
2022/12/31 00:03:21;;;;;;;0.10;0.10;;;;;;;;;;6239010;22;20021;-83
2022/12/31 00:05:47;;;;;;;0.10;0.10;;;;;;;;;;6239168;22;20077;-83
2022/12/31 00:08:13;;;;;;;0.10;0.10;;;;;;;;;;6239451;22;20478;-83
2022/12/31 00:10:42;;;;;;;0.10;0.10;;;;;;;;;;6240538;22;20011;-83
2022/12/31 00:13:09;;;;;;;0.00;0.00;;;;;;;;;;6265598;22;20081;-84
2022/12/31 00:15:35;;;;;;;0.10;0.10;;;;;;;;;;6264933;22;20347;-85
2022/12/31 00:18:01;;;;;;;0.55;0.52;;;;;;;;;;6265825;22;20481;-83
2022/12/31 00:20:27;;;;;;;0.10;0.10;;;;;;;;;;6266137;22;20753;-84
2022/12/31 00:22:54;;;;;;;0.25;0.25;;;;;;;;;;6265571;22;20023;-85
2022/12/31 00:25:20;;;;;;;0.10;0.10;;;;;;;;;;6266469;22;20446;-85
2022/12/31 00:27:46;;;;;;;0.10;0.10;;;;;;;;;;6265392;22;20430;-83
2022/12/31 00:30:12;;;;;;;0.10;0.10;;;;;;;;;;6266484;22;20066;-83
2022/12/31 00:32:38;;;;;;;0.10;0.10;;;;;;;;;;6264972;22;20016;-84
2022/12/31 00:35:04;;;;;;;0.10;0.10;;;;;;;;;;6240198;22;20019;-84
2022/12/31 00:37:33;;;;;;;0.63;0.63;;;;;;;;;;6240287;22;20909;-86
2022/12/31 00:39:59;;;;;;;0.10;0.10;;;;;;;;;;6234482;22;20086;-84
2022/12/31 00:42:25;;;;;;;0.10;0.10;;;;;;;;;;6260691;22;20011;-86
2022/12/31 00:44:51;;;;;;;0.10;0.10;;;;;;;;;;6260960;22;20050;-85
2022/12/31 00:47:18;;;;;;;0.10;0.10;;;;;;;;;;6234118;22;20022;-83
2022/12/31 00:49:44;;;;;;;0.10;0.10;;;;;;;;;;6234438;22;20043;-85
2022/12/31 00:52:12;;;;;;;0.10;0.10;;;;;;;;;;6235259;22;20023;-84
2022/12/31 00:54:38;;;;;;;0.10;0.10;;;;;;;;;;6260194;22;20432;-85
2022/12/31 00:57:04;;;;;;;0.10;0.10;;;;;;;;;;6260846;22;20596;-84
2022/12/31 00:59:30;;;;;;;0.10;0.10;;;;;;;;;;6233744;22;20110;-83
2022/12/31 01:01:56;;;;;;;0.10;0.10;;;;;;;;;;6234098;22;20651;-84
2022/12/31 01:04:22;;;;;;;0.10;0.10;;;;;;;;;;6259708;22;20399;-86
2022/12/31 01:06:48;;;;;;;0.10;0.10;;;;;;;;;;6260799;22;20535;-84
2022/12/31 01:09:15;;;;;;;0.10;0.10;;;;;;;;;;6260117;22;20430;-83
2022/12/31 01:11:41;;;;;;;0.10;0.10;;;;;;;;;;6260620;22;20020;-85
2022/12/31 01:14:10;;;;;;;0.13;0.13;;;;;;;;;;6260089;22;20463;-83
2022/12/31 01:17:02;;;;;;;0.47;0.47;;;;;;;;;;6234320;22;20023;-83
2022/12/31 01:19:29;;;;;;;0.10;0.10;;;;;;;;;;6252145;22;20092;-83
2022/12/31 01:21:55;;;;;;;0.30;0.30;;;;;;;;;;6260395;22;20012;-82
2022/12/31 01:24:21;;;;;;;0.10;0.10;;;;;;;;;;6234475;22;20019;-84
2022/12/31 01:26:49;;;;;;;0.85;0.85;;;;;;;;;;6262079;22;20436;-83
2022/12/31 01:29:15;;;;;;;0.10;0.10;;;;;;;;;;6259891;22;20051;-82
2022/12/31 01:31:41;;;;;;;0.10;0.10;;;;;;;;;;6260125;22;20015;-82
2022/12/31 01:34:08;;;;;;;0.10;0.10;;;;;;;;;;6262202;22;20091;-82
2022/12/31 01:36:35;;;;;;;0.10;0.10;;;;;;;;;;6262146;22;20015;-82
2022/12/31 01:39:02;;;;;;;0.10;0.10;;;;;;;;;;6266653;22;20020;-83
2022/12/31 01:41:36;;;;;;;0.57;0.57;;;;;;;;;;6266854;22;20023;-82
2022/12/31 01:44:11;;;;;;;0.10;0.10;;;;;;;;;;6267154;22;20015;-82
2022/12/31 01:46:40;;;;;;;0.10;0.10;;;;;;;;;;6266634;22;20402;-84
2022/12/31 01:49:09;;;;;;;0.10;0.10;;;;;;;;;;6267503;22;20058;-83
2022/12/31 01:51:36;;;;;;;0.10;0.10;;;;;;;;;;6266498;22;20090;-83
2022/12/31 01:54:06;;;;;;;0.10;0.10;;;;;;;;;;6266919;22;20019;-85
2022/12/31 01:56:32;;;;;;;0.10;0.10;;;;;;;;;;6267306;22;20022;-84
2022/12/31 01:58:58;;;;;;;0.10;0.10;;;;;;;;;;6240201;22;20473;-84
2022/12/31 02:01:26;;;;;;;0.10;0.10;;;;;;;;;;6265138;22;20026;-84
2022/12/31 02:03:52;;;;;;;0.20;0.20;;;;;;;;;;6266243;22;20090;-84
2022/12/31 02:06:51;;;;;;;0.10;0.10;;;;;;;;;;6266374;22;20030;-83
2022/12/31 02:09:17;;;;;;;0.10;0.10;;;;;;;;;;6184850;22;20094;-84
2022/12/31 02:11:43;;;;;;;1.00;1.00;;;;;;;;;;6266039;22;20023;-85
2022/12/31 02:14:12;;;;;;;0.10;0.10;;;;;;;;;;6266542;22;20423;-82
2022/12/31 02:16:45;;;;;;;0.52;0.52;;;;;;;;;;6267236;22;20031;-84
2022/12/31 02:19:11;;;;;;;0.10;0.10;;;;;;;;;;6241684;22;20257;-83
2022/12/31 02:21:40;;;;;;;0.10;0.10;;;;;;;;;;6267029;22;20069;-83
2022/12/31 02:24:24;;;;;;;0.10;0.10;;;;;;;;;;6266647;22;20448;-83
2022/12/31 02:26:54;;;;;;;0.10;0.10;;;;;;;;;;6267197;22;20043;-84
2022/12/31 02:29:23;;;;;;;0.10;0.10;;;;;;;;;;6267088;22;20015;-83
2022/12/31 02:31:55;;;;;;;0.10;0.10;;;;;;;;;;6266508;22;20038;-83
2022/12/31 02:34:32;;;;;;;0.10;0.10;;;;;;;;;;6266665;22;20051;-84
2022/12/31 02:36:59;;;;;;;1.40;0.52;;;;;;;;;;6268032;22;20046;-84
2022/12/31 02:39:25;;;;;;;0.10;0.10;;;;;;;;;;6237399;22;20023;-83
2022/12/31 02:41:52;;;;;;;0.10;0.10;;;;;;;;;;6263965;22;20023;-84
2022/12/31 02:44:23;;;;;;;0.68;0.68;;;;;;;;;;6262786;22;20069;-84
2022/12/31 02:47:16;;;;;;;0.10;0.10;;;;;;;;;;6238344;22;20043;-85
2022/12/31 02:49:48;;;;;;;0.10;0.10;;;;;;;;;;6205350;22;20339;-83
2022/12/31 02:52:17;;;;;;;0.10;0.10;;;;;;;;;;6236057;22;20019;-83
2022/12/31 02:54:49;;;;;;;0.10;0.10;;;;;;;;;;6236153;22;20433;-84
2022/12/31 02:57:20;;;;;;;0.10;0.10;;;;;;;;;;6261637;22;20016;-84
2022/12/31 03:02:46;;;;;;;0.00;0.00;;;;;;;;;;6261508;22;20155;-83
2022/12/31 03:05:13;;;;;;;0.10;0.10;;;;;;;;;;6260821;22;20019;-83
2022/12/31 03:07:40;;;;;;;0.10;0.10;;;;;;;;;;6261666;22;20556;-85
2022/12/31 03:10:07;;;;;;;0.10;0.10;;;;;;;;;;6260567;22;20011;-83
2022/12/31 03:12:46;;;;;;;0.10;0.10;;;;;;;;;;6260131;22;20434;-83
2022/12/31 03:15:19;;;;;;;0.10;0.10;;;;;;;;;;6234882;22;20039;-84
2022/12/31 03:17:48;;;;;;;0.10;0.10;;;;;;;;;;6261858;22;20088;-83
2022/12/31 03:22:59;;;;;;;0.10;0.10;;;;;;;;;;6260260;22;20127;-84
2022/12/31 03:25:34;;;;;;;0.10;0.10;;;;;;;;;;6260572;22;20361;-85
2022/12/31 03:28:08;;;;;;;0.10;0.10;;;;;;;;;;6236220;22;20027;-83
2022/12/31 03:30:35;;;;;;;0.10;0.10;;;;;;;;;;6260492;22;20047;-84
2022/12/31 03:33:01;;;;;;;0.00;0.00;;;;;;;;;;6261061;22;20099;-83
2022/12/31 03:35:28;;;;;;;0.10;0.10;;;;;;;;;;6260801;22;20482;-84
2022/12/31 03:37:55;;;;;;;0.00;0.00;;;;;;;;;;6260606;22;20022;-84
2022/12/31 03:40:22;;;;;;;0.10;0.10;;;;;;;;;;6234671;22;20452;-86
2022/12/31 03:42:48;;;;;;;0.10;0.10;;;;;;;;;;6261475;22;20398;-84
2022/12/31 03:45:15;;;;;;;0.10;0.10;;;;;;;;;;6260150;22;20015;-83
2022/12/31 03:47:41;;;;;;;0.10;0.10;;;;;;;;;;6234619;22;20409;-83
2022/12/31 03:50:08;;;;;;;0.10;0.10;;;;;;;;;;6234504;22;20016;-83
2022/12/31 03:52:34;;;;;;;0.10;0.10;;;;;;;;;;6261105;22;20099;-83
2022/12/31 03:55:03;;;;;;;0.10;0.10;;;;;;;;;;6235164;22;20085;-83
2022/12/31 03:57:29;;;;;;;0.10;0.10;;;;;;;;;;6260336;22;20019;-83
2022/12/31 03:59:55;;;;;;;0.10;0.10;;;;;;;;;;6259505;22;20087;-82
2022/12/31 04:02:22;;;;;;;0.10;0.10;;;;;;;;;;6260688;22;20066;-84
2022/12/31 04:04:48;;;;;;;0.10;0.10;;;;;;;;;;6260851;22;20069;-83
2022/12/31 04:07:14;;;;;;;0.00;0.00;;;;;;;;;;6260281;22;20015;-83
2022/12/31 04:09:40;;;;;;;0.10;0.10;;;;;;;;;;6259862;22;20012;-84
2022/12/31 04:12:06;;;;;;;0.10;0.10;;;;;;;;;;6234772;22;20023;-83
2022/12/31 04:14:32;;;;;;;0.10;0.10;;;;;;;;;;6261296;22;20028;-84
2022/12/31 04:16:58;;;;;;;0.10;0.10;;;;;;;;;;6259938;22;20020;-84
2022/12/31 04:19:24;;;;;;;0.10;0.10;;;;;;;;;;6260597;22;20255;-86
2022/12/31 04:21:50;;;;;;;0.10;0.10;;;;;;;;;;6234336;22;20016;-84
2022/12/31 04:24:16;;;;;;;0.10;0.10;;;;;;;;;;6235733;22;20024;-83
2022/12/31 04:26:43;;;;;;;0.10;0.10;;;;;;;;;;6256336;22;20080;-83
2022/12/31 04:29:09;;;;;;;0.75;0.65;;;;;;;;;;6235473;22;20023;-84
2022/12/31 04:31:35;;;;;;;0.10;0.10;;;;;;;;;;6235479;22;20097;-84
2022/12/31 04:34:01;;;;;;;0.20;0.20;;;;;;;;;;6235752;22;20051;-82
2022/12/31 04:36:27;;;;;;;0.10;0.10;;;;;;;;;;6234749;22;20015;-83
2022/12/31 04:38:53;;;;;;;0.13;0.13;;;;;;;;;;6237987;22;20015;-84
2022/12/31 04:41:20;;;;;;;0.10;0.10;;;;;;;;;;6250782;22;20082;-85
2022/12/31 04:43:51;;;;;;;0.10;0.10;;;;;;;;;;6273236;22;20022;-84
2022/12/31 04:46:18;;;;;;;0.10;0.10;;;;;;;;;;6243349;22;20446;-84
2022/12/31 04:48:44;;;;;;;0.10;0.10;;;;;;;;;;6271453;22;20015;-84
2022/12/31 04:51:11;;;;;;;0.10;0.10;;;;;;;;;;6268924;22;20011;-83
2022/12/31 04:53:37;;;;;;;0.10;0.10;;;;;;;;;;6240082;22;20015;-83
2022/12/31 04:56:03;;;;;;;0.10;0.10;;;;;;;;;;6266265;22;20053;-83
2022/12/31 04:58:29;;;;;;;0.10;0.10;;;;;;;;;;6264793;22;20042;-84
2022/12/31 05:00:55;;;;;;;0.10;0.10;;;;;;;;;;6240676;22;20062;-84
2022/12/31 05:03:22;;;;;;;0.10;0.10;;;;;;;;;;6265061;22;20759;-83
2022/12/31 05:05:49;;;;;;;0.10;0.10;;;;;;;;;;6265305;22;20357;-83
2022/12/31 05:08:16;;;;;;;0.10;0.10;;;;;;;;;;6264145;22;20016;-83
2022/12/31 05:10:43;;;;;;;0.10;0.10;;;;;;;;;;6239166;22;20015;-84
2022/12/31 05:13:09;;;;;;;0.95;0.95;;;;;;;;;;6265096;22;20031;-83
2022/12/31 05:15:35;;;;;;;0.10;0.10;;;;;;;;;;6265149;22;20415;-83
2022/12/31 05:18:02;;;;;;;0.10;0.10;;;;;;;;;;6264936;22;20357;-84
2022/12/31 05:20:28;;;;;;;0.10;0.10;;;;;;;;;;6264983;22;20011;-84
2022/12/31 05:22:54;;;;;;;0.10;0.10;;;;;;;;;;6266370;22;20022;-83
2022/12/31 05:25:20;;;;;;;0.10;0.10;;;;;;;;;;6265714;22;20030;-85
2022/12/31 05:27:47;;;;;;;0.68;0.63;;;;;;;;;;6265064;22;20122;-84
2022/12/31 05:30:13;;;;;;;0.10;0.10;;;;;;;;;;6264275;22;20446;-83
2022/12/31 05:32:39;;;;;;;0.10;0.10;;;;;;;;;;6240219;22;20480;-84
2022/12/31 05:35:06;;;;;;;0.20;0.20;;;;;;;;;;6240529;22;20343;-84
2022/12/31 05:37:32;;;;;;;0.10;0.10;;;;;;;;;;6266796;22;20413;-84
2022/12/31 05:39:58;;;;;;;0.20;0.20;;;;;;;;;;6260125;22;20093;-84
2022/12/31 05:42:26;;;;;;;0.10;0.10;;;;;;;;;;6234330;22;20437;-85
2022/12/31 05:44:52;;;;;;;0.10;0.10;;;;;;;;;;6261565;22;20215;-84
2022/12/31 05:47:18;;;;;;;0.00;0.00;;;;;;;;;;6234656;22;20580;-85
2022/12/31 05:49:44;;;;;;;0.10;0.10;;;;;;;;;;6259509;22;20024;-84
2022/12/31 05:52:11;;;;;;;0.10;0.10;;;;;;;;;;6262143;22;20466;-84
2022/12/31 05:54:37;;;;;;;0.10;0.10;;;;;;;;;;6259572;22;20190;-84
2022/12/31 05:57:03;;;;;;;0.10;0.10;;;;;;;;;;6260193;22;20027;-85
2022/12/31 05:59:30;;;;;;;0.10;0.10;;;;;;;;;;6259686;22;20687;-85
2022/12/31 06:01:56;;;;;;;0.20;0.20;;;;;;;;;;6259532;22;20337;-85
2022/12/31 06:04:22;;;;;;;0.10;0.10;;;;;;;;;;6235161;22;20419;-83
2022/12/31 06:06:48;;;;;;;0.10;0.10;;;;;;;;;;6260107;22;20016;-84
2022/12/31 06:09:15;;;;;;;1.15;1.08;;;;;;;;;;6234169;22;20093;-84
2022/12/31 06:11:41;;;;;;;0.10;0.10;;;;;;;;;;6260076;22;20343;-80
2022/12/31 06:14:07;;;;;;;0.00;0.00;;;;;;;;;;6261108;22;20464;-83
2022/12/31 06:16:34;;;;;;;0.10;0.10;;;;;;;;;;6259430;22;20015;-83
2022/12/31 06:19:01;;;;;;;0.10;0.10;;;;;;;;;;6261670;22;20098;-83
2022/12/31 06:21:27;;;;;;;0.10;0.10;;;;;;;;;;6262517;22;20019;-84
2022/12/31 06:23:53;;;;;;;0.10;0.10;;;;;;;;;;6260458;22;20050;-84
2022/12/31 06:26:19;;;;;;;0.10;0.10;;;;;;;;;;6261874;22;20023;-85
2022/12/31 06:28:45;;;;;;;0.10;0.10;;;;;;;;;;6261357;22;20020;-84
2022/12/31 06:31:12;;;;;;;0.10;0.10;;;;;;;;;;6236174;22;20023;-83
2022/12/31 06:33:38;;;;;;;0.10;0.10;;;;;;;;;;6257492;22;20016;-84
2022/12/31 06:36:05;;;;;;;0.10;0.10;;;;;;;;;;6259606;22;20089;-83
2022/12/31 06:38:33;;;;;;;0.10;0.10;;;;;;;;;;6235306;22;20464;-82
2022/12/31 06:41:13;;;;;;;0.10;0.10;;;;;;;;;;6260811;22;20062;-83
2022/12/31 06:43:39;;;;;;;0.10;0.10;;;;;;;;;;6261498;22;20028;-83
2022/12/31 06:46:06;;;;;;;0.10;0.10;;;;;;;;;;6260613;22;20094;-83
2022/12/31 06:48:33;;;;;;;0.05;0.05;;;;;;;;;;6261823;22;20019;-84
2022/12/31 06:51:04;;;;;;;0.10;0.10;;;;;;;;;;6235680;22;20077;-83
2022/12/31 06:53:30;;;;;;;0.10;0.10;;;;;;;;;;6260155;22;20020;-83
2022/12/31 06:55:56;;;;;;;0.10;0.10;;;;;;;;;;6234025;22;20016;-83
2022/12/31 06:58:23;;;;;;;0.10;0.10;;;;;;;;;;6259909;22;20778;-81
2022/12/31 07:01:09;;;;;;;0.35;0.35;;;;;;;;;;6259505;22;20211;-83
2022/12/31 07:03:53;;;;;;;0.10;0.10;;;;;;;;;;6258534;22;20027;-83
2022/12/31 07:06:26;;;;;;;0.10;0.10;;;;;;;;;;6259944;22;20345;-83
2022/12/31 07:08:59;;;;;;;0.10;0.10;;;;;;;;;;6260977;22;20052;-83
2022/12/31 07:11:28;;;;;;;0.10;0.10;;;;;;;;;;6260481;22;20513;-83
2022/12/31 07:14:03;;;;;;;0.10;0.10;;;;;;;;;;6259082;22;20370;-82
2022/12/31 07:16:48;;;;;;;0.10;0.10;;;;;;;;;;6261219;22;20475;-83
2022/12/31 07:19:23;;;;;;;0.10;0.10;;;;;;;;;;6234865;22;20018;-83
2022/12/31 07:21:49;;;;;;;0.17;0.17;;;;;;;;;;6259633;22;20023;-82
2022/12/31 07:24:15;;;;;;;0.10;0.10;;;;;;;;;;6260488;22;20027;-84
2022/12/31 07:26:50;;;;;;;0.10;0.10;;;;;;;;;;6260860;22;20029;-83
2022/12/31 07:29:20;;;;;;;0.10;0.10;;;;;;;;;;6260123;22;20024;-81
2022/12/31 07:31:56;;;;;;;0.10;0.10;;;;;;;;;;6260084;22;20019;-84
2022/12/31 07:34:27;;;;;;;0.22;0.22;;;;;;;;;;6259636;22;20051;-82
2022/12/31 07:36:58;;;;;;;0.10;0.10;;;;;;;;;;6260127;22;20054;-82
2022/12/31 07:39:35;;;;;;;0.10;0.10;;;;;;;;;;6257772;22;20023;-82
2022/12/31 07:42:22;;;;;;;0.10;0.10;;;;;;;;;;6259194;22;20023;-84
2022/12/31 07:44:48;;;;;;;0.10;0.10;;;;;;;;;;6258603;22;20120;-81
2022/12/31 07:47:24;;;;;;;0.10;0.10;;;;;;;;;;6258445;22;20057;-80
2022/12/31 07:49:51;;;;;;;0.20;0.20;;;;;;;;;;6260659;22;20016;-80
2022/12/31 07:52:17;;;;;;;0.10;0.10;;;;;;;;;;6259924;22;20020;-80
2022/12/31 07:54:43;;;;;;;0.10;0.10;;;;;;;;;;6259824;22;20023;-80
2022/12/31 07:57:11;;;;;;;0.10;0.10;;;;;;;;;;6260738;22;20411;-80
2022/12/31 07:59:43;;;;;;;0.10;0.10;;;;;;;;;;6232917;22;20085;-80
2022/12/31 08:02:28;;;;;;;0.10;0.10;;;;;;;;;;6259830;22;20417;-80
2022/12/31 08:05:07;;;;;;;0.63;0.38;;;;;;;;;;6233153;22;20077;-80
2022/12/31 08:07:45;;;;;;;0.10;0.10;;;;;;;;;;6235757;22;20047;-80
2022/12/31 08:10:21;;;;;;;0.30;0.30;;;;;;;;;;6259873;22;20024;-81
2022/12/31 08:12:48;;;;;;;0.10;0.10;;;;;;;;;;6259849;22;20015;-80
2022/12/31 08:15:16;;;;;;;0.10;0.10;;;;;;;;;;6259152;22;20018;-80
2022/12/31 08:17:43;;;;;;;0.10;0.10;;;;;;;;;;6260567;22;20077;-80
2022/12/31 08:20:13;;;;;;;0.22;0.22;;;;;;;;;;6259338;22;20016;-80
2022/12/31 08:22:42;;;;;;;0.10;0.10;;;;;;;;;;6262228;22;20077;-81
2022/12/31 08:25:19;;;;;;;0.00;0.00;;;;;;;;;;6259689;22;20020;-80
2022/12/31 08:27:52;;;;;;;0.10;0.10;;;;;;;;;;6258609;22;20311;-84
2022/12/31 08:30:18;;;;;;;;;;;;;;;;;;6258814;22;20524;-78
2022/12/31 08:32:44;;;;;;;0.10;0.10;;;;;;;;;;6259690;22;19923;-81
2022/12/31 08:35:18;;;;;;;0.10;0.10;;;;;;;;;;6259003;22;20015;-83
2022/12/31 08:37:49;;;;;;;0.10;0.10;;;;;;;;;;6259436;22;20016;-81
2022/12/31 08:40:22;;;;;;;0.10;0.10;;;;;;;;;;6259270;22;20020;-81
2022/12/31 08:43:01;;;;;;;0.10;0.10;;;;;;;;;;6258618;22;20423;-80
2022/12/31 08:45:30;;;;;;;0.10;0.10;;;;;;;;;;6259750;22;20047;-81
2022/12/31 08:48:11;;;;;;;0.10;0.10;;;;;;;;;;6258663;22;20090;-79
2022/12/31 08:50:38;;;;;;;0.10;0.10;;;;;;;;;;6260797;22;20415;-80
2022/12/31 08:53:04;;;;;;;0.10;0.10;;;;;;;;;;6261283;22;20026;-79
2022/12/31 08:55:30;;;;;;;0.10;0.10;;;;;;;;;;6259378;22;20430;-79
2022/12/31 08:58:19;;;;;;;0.10;0.10;;;;;;;;;;6256988;22;20015;-80
2022/12/31 09:00:46;;;;;;;0.10;0.10;;;;;;;;;;6257205;22;20027;-79
2022/12/31 09:03:32;;;;;;;0.10;0.10;;;;;;;;;;6259381;22;20020;-78
2022/12/31 09:06:13;;;;;;;0.10;0.10;;;;;;;;;;6232331;22;20482;-80
2022/12/31 09:08:58;;;;;;;0.10;0.10;;;;;;;;;;6258666;22;20019;-81
2022/12/31 09:11:42;;;;;;;0.10;0.10;;;;;;;;;;6258398;22;20047;-77
2022/12/31 09:14:11;;;;;;;0.10;0.10;;;;;;;;;;6258499;22;20023;-78
2022/12/31 09:16:48;;;;;;;0.10;0.10;;;;;;;;;;6258177;22;20077;-78
2022/12/31 09:19:14;;;;;;;0.10;0.10;;;;;;;;;;6258702;22;20513;-79
2022/12/31 09:21:44;;;;;;;0.10;0.10;;;;;;;;;;6257692;22;20012;-81
2022/12/31 09:24:13;;;;;;;0.10;0.10;;;;;;;;;;6231481;22;20030;-81
2022/12/31 09:27:02;;;;;;;0.10;0.10;;;;;;;;;;6258768;22;20024;-80
2022/12/31 09:29:28;;;;;;;0.10;0.10;;;;;;;;;;6214025;22;20077;-82
2022/12/31 09:32:10;;;;;;;0.10;0.10;;;;;;;;;;6258976;22;20018;-81
2022/12/31 09:34:54;;;;;;;0.10;0.10;;;;;;;;;;6257509;22;20066;-80
2022/12/31 09:37:41;;;;;;;0.05;0.05;;;;;;;;;;6231781;22;20545;-80
2022/12/31 09:40:30;;;;;;;0.10;0.10;;;;;;;;;;6259521;22;20024;-80
2022/12/31 09:42:56;;;;;;;0.10;0.10;;;;;;;;;;6239238;22;20423;-81
2022/12/31 09:45:41;;;;;;;0.25;0.25;;;;;;;;;;6233584;22;20454;-81
2022/12/31 09:48:23;;;;;;;0.10;0.10;;;;;;;;;;6259321;22;20020;-81
2022/12/31 09:50:52;;;;;;;0.20;0.20;;;;;;;;;;6258748;22;20024;-81
2022/12/31 09:53:21;;;;;;;0.10;0.10;;;;;;;;;;6259988;22;20556;-82
2022/12/31 09:55:53;;;;;;;0.10;0.10;;;;;;;;;;6234309;22;20015;-81
2022/12/31 09:58:27;;;;;;;0.00;0.00;;;;;;;;;;6258085;22;20397;-82
2022/12/31 10:00:57;;;;;;;0.10;0.10;;;;;;;;;;6261524;22;20317;-82
2022/12/31 10:03:38;;;;;;;0.10;0.10;;;;;;;;;;6234840;22;20288;-80
2022/12/31 10:06:24;;;;;;;0.10;0.10;;;;;;;;;;6234160;22;20441;-79
2022/12/31 10:08:56;;;;;;;0.70;0.70;;;;;;;;;;6259522;22;20199;-80
2022/12/31 10:11:25;;;;;;;0.25;0.25;;;;;;;;;;6230441;22;20090;-81
2022/12/31 10:14:00;;;;;;;0.40;0.40;;;;;;;;;;6233853;22;20019;-82
2022/12/31 10:16:26;;;;;;;0.00;0.00;;;;;;;;;;6233302;22;20077;-81
2022/12/31 10:18:52;;;;;;;0.10;0.10;;;;;;;;;;6259427;22;20024;-80
2022/12/31 10:21:32;;;;;;;0.10;0.10;;;;;;;;;;6259145;22;20395;-81
2022/12/31 10:24:11;;;;;;;0.17;0.17;;;;;;;;;;6258885;22;20026;-79
2022/12/31 14:43:42;;;;;;;0.00;0.00;;;;;;;;;;6147418;22;1280481;-77
2022/12/31 14:46:09;;;;;;;0.10;0.10;;;;;;;;;;6180222;23;20029;-84
2022/12/31 14:48:35;;;;;;;;;;;;;;;;;;6144273;23;20495;-83
2022/12/31 14:51:02;;;;;;;0.10;0.10;;;;;;;;;;6144184;23;19955;-82
2022/12/31 14:53:27;;;;;;;;;;;;;;;;;;6177617;23;20025;-83
2022/12/31 14:55:53;;;;;;;;;;;;;;;;;;6147163;23;19916;-85
2022/12/31 14:58:23;;;;;;;;;;;;;;;;;;6142261;23;19923;-85
2022/12/31 15:00:49;;;;;;;;;;;;;;;;;;6141923;23;19947;-84
2022/12/31 15:03:15;;;;;;;0.10;0.10;;;;;;;;;;6139741;23;19920;-82
2022/12/31 15:05:41;;;;;;;;;;;;;;;;;;6141504;23;20092;-84
2022/12/31 15:08:07;;;;;;;;;;;;;;;;;;6140430;23;20035;-84
2022/12/31 15:10:33;;;;;;;;;;;;;;;;;;6116512;23;20295;-82
2022/12/31 15:12:59;;;;;;;;;;;;;;;;;;6141373;23;20366;-81
2022/12/31 15:15:29;;;;;;;;;;;;;;;;;;6141706;23;19923;-84
2022/12/31 15:17:55;;;;;;;;;;;;;;;;;;6140002;23;20520;-83
2022/12/31 15:20:20;;;;;;;;;;;;;;;;;;6118692;23;19916;-83
2022/12/31 15:22:46;;;;;;;;;;;;;;;;;;6143173;23;19927;-83
2022/12/31 15:25:12;;;;;;;;;;;;;;;;;;6143271;23;19978;-82
2022/12/31 15:27:41;;;;;;;;;;;;;;;;;;6143190;23;20276;-84
2022/12/31 15:30:07;;;;;;;;;;;;;;;;;;6143210;23;20332;-88
2022/12/31 15:32:33;;;;;;;;;;;;;;;;;;6143896;23;19920;-83
2022/12/31 15:34:59;;;;;;;;;;;;;;;;;;6141445;23;19931;-81
2022/12/31 15:37:25;;;;;;;;;;;;;;;;;;6141641;23;19924;-81
2022/12/31 15:39:51;;;;;;;;;;;;;;;;;;6140435;23;19923;-82
2022/12/31 15:42:16;;;;;;;;;;;;;;;;;;6141405;23;19924;-81
2022/12/31 15:44:42;;;;;;;;;;;;;;;;;;6140656;23;19988;-81
2022/12/31 15:47:08;;;;;;;;;;;;;;;;;;6141475;23;19928;-82
2022/12/31 15:49:35;;;;;;;;;;;;;;;;;;6140540;23;19920;-82
2022/12/31 15:52:01;;;;;;;;;;;;;;;;;;6141026;23;19995;-82
2022/12/31 15:54:30;;;;;;;0.10;0.10;;;;;;;;;;6140487;23;20007;-82
2022/12/31 15:56:57;;;;;;;0.10;0.10;;;;;;;;;;6116209;23;20116;-81
2022/12/31 15:59:24;;;;;;;0.10;0.10;;;;;;;;;;6141553;23;20025;-80
2022/12/31 16:01:51;;;;;;;0.15;0.15;;;;;;;;;;6142320;23;20464;-84
2022/12/31 16:04:17;;;;;;;0.10;0.10;;;;;;;;;;6140447;23;20055;-81
2022/12/31 16:06:43;;;;;;;2.08;1.98;;;;;;;;;;6141776;23;20045;-80
2022/12/31 16:09:18;;;;;;;0.10;0.10;;;;;;;;;;6116270;23;20457;-81
2022/12/31 16:11:44;;;;;;;0.20;0.20;;;;;;;;;;6142695;23;20064;-81
2022/12/31 16:14:16;;;;;;;0.10;0.10;;;;;;;;;;6142058;23;20093;-82
2022/12/31 16:16:50;;;;;;;4.90;4.50;;;;;;;;;;6169314;23;20120;-81
2022/12/31 16:19:43;;;;;;;0.20;0.20;;;;;;;;;;6117290;23;20068;-84
2022/12/31 16:22:13;;;;;;;0.10;0.10;;;;;;;;;;6137173;23;20086;-85
2022/12/31 16:24:40;;;;;;;0.10;0.10;;;;;;;;;;6142717;23;20024;-86
2022/12/31 16:27:07;;;;;;;0.10;0.10;;;;;;;;;;6142582;23;20044;-83
2022/12/31 16:29:35;;;;;;;0.52;0.52;;;;;;;;;;6142712;23;20021;-84
2022/12/31 16:32:01;;;;;;;0.10;0.10;;;;;;;;;;6140454;23;20017;-83
2022/12/31 16:34:28;;;;;;;0.10;0.10;;;;;;;;;;6141389;23;20021;-85
2022/12/31 16:36:55;;;;;;;0.93;0.93;;;;;;;;;;6169300;23;20021;-81
2022/12/31 16:39:21;;;;;;;;;;;;;;;;;;6142832;23;20017;-83
2022/12/31 16:41:47;;;;;;;;;;;;;;;;;;6145041;23;19920;-83
2022/12/31 16:44:13;;;;;;;;;;;;;;;;;;6170622;23;19920;-84
2022/12/31 16:46:38;;;;;;;;;;;;;;;;;;6142366;23;19959;-83
2022/12/31 16:49:04;;;;;;;;;;;;;;;;;;6168912;23;19920;-83
2022/12/31 16:51:30;;;;;;;;;;;;;;;;;;6143593;23;20424;-83
2022/12/31 16:53:56;;;;;;;;;;;;;;;;;;6142533;23;20258;-86
2022/12/31 16:56:31;;;;;;;0.10;0.10;;;;;;;;;;6141466;23;19987;-84
2022/12/31 16:59:00;;;;;;;0.10;0.10;;;;;;;;;;6143499;23;20021;-85
2022/12/31 17:01:28;;;;;;;0.10;0.10;;;;;;;;;;6145024;23;20433;-88
2022/12/31 17:03:56;;;;;;;0.38;0.22;;;;;;;;;;6143782;23;20016;-87
2022/12/31 17:06:23;;;;;;;0.35;0.35;;;;;;;;;;6145492;23;20344;-83
2022/12/31 17:08:56;;;;;;;0.10;0.10;;;;;;;;;;6142360;23;20053;-82
2022/12/31 17:11:22;;;;;;;;;;;;;;;;;;6145385;23;20120;-86
2022/12/31 17:13:48;;;;;;;;;;;;;;;;;;6120279;23;19966;-85
2022/12/31 17:16:16;;;;;;;0.13;0.13;;;;;;;;;;6145074;23;20394;-86
2022/12/31 17:18:44;;;;;;;0.10;0.10;;;;;;;;;;6144149;23;20017;-85
2022/12/31 17:21:10;;;;;;;0.10;0.10;;;;;;;;;;6120046;23;20063;-85
2022/12/31 17:23:38;;;;;;;0.25;0.25;;;;;;;;;;6143994;23;20021;-86
2022/12/31 17:26:09;;;;;;;1.10;1.00;;;;;;;;;;6118196;23;20048;-85
2022/12/31 17:28:46;;;;;;;0.10;0.10;;;;;;;;;;6120058;23;20021;-84
2022/12/31 17:31:25;;;;;;;0.10;0.10;;;;;;;;;;6117222;23;20432;-84
2022/12/31 17:34:03;;;;;;;0.10;0.10;;;;;;;;;;6142646;23;20017;-84
2022/12/31 17:36:29;;;;;;;0.10;0.10;;;;;;;;;;6118341;23;20013;-84
2022/12/31 17:38:55;;;;;;;3.45;1.55;;;;;;;;;;6141405;23;20352;-83
2022/12/31 17:41:24;;;;;;;0.75;0.50;;;;;;;;;;6116533;23;20017;-84
2022/12/31 17:43:54;;;;;;;0.10;0.10;;;;;;;;;;6155344;23;20035;-83
2022/12/31 17:46:21;;;;;;;0.68;0.68;;;;;;;;;;6165006;23;20059;-84
2022/12/31 17:48:50;;;;;;;0.95;0.95;;;;;;;;;;6166527;23;20013;-85
2022/12/31 17:51:17;;;;;;;1.85;1.75;;;;;;;;;;6141024;23;20021;-84
2022/12/31 17:53:43;;;;;;;0.10;0.10;;;;;;;;;;6166197;23;20049;-85
2022/12/31 17:56:15;;;;;;;0.35;0.35;;;;;;;;;;6141092;23;20016;-84
2022/12/31 17:58:46;;;;;;;1.35;0.85;;;;;;;;;;6165170;23;20354;-91
2022/12/31 18:01:14;;;;;;;0.57;0.57;;;;;;;;;;6165746;23;20021;-84
2022/12/31 18:03:40;;;;;;;0.10;0.10;;;;;;;;;;6164635;23;20092;-84
2022/12/31 18:06:08;;;;;;;0.10;0.10;;;;;;;;;;6140960;23;20017;-83
2022/12/31 18:08:34;;;;;;;0.10;0.10;;;;;;;;;;6166205;23;20056;-84
2022/12/31 18:11:00;;;;;;;0.10;0.10;;;;;;;;;;6165418;23;20079;-83
2022/12/31 18:13:27;;;;;;;0.40;0.40;;;;;;;;;;6140722;23;20013;-87
2022/12/31 18:15:53;;;;;;;0.10;0.10;;;;;;;;;;6166517;23;20583;-82
2022/12/31 18:18:20;;;;;;;0.15;0.15;;;;;;;;;;6165396;23;20275;-88
2022/12/31 18:20:48;;;;;;;0.10;0.10;;;;;;;;;;6143012;23;20048;-82
2022/12/31 18:23:32;;;;;;;0.10;0.10;;;;;;;;;;6166581;23;20272;-84
2022/12/31 18:25:59;;;;;;;0.20;0.20;;;;;;;;;;6168481;23;20441;-82
2022/12/31 18:28:25;;;;;;;0.32;0.32;;;;;;;;;;6168384;23;20085;-83
2022/12/31 18:30:52;;;;;;;0.25;0.25;;;;;;;;;;6168110;23;20020;-83
2022/12/31 18:33:21;;;;;;;0.10;0.10;;;;;;;;;;6142363;23;20025;-82
2022/12/31 18:35:50;;;;;;;4.47;1.17;;;;;;;;;;6142758;23;20393;-83
2022/12/31 18:38:17;;;;;;;0.82;0.82;;;;;;;;;;6168393;23;20375;-83
2022/12/31 18:40:45;;;;;;;0.88;0.88;;;;;;;;;;6141459;23;20027;-81
2022/12/31 18:43:16;;;;;;;0.13;0.13;;;;;;;;;;6167257;23;20297;-82
2022/12/31 18:45:42;;;;;;;0.13;0.13;;;;;;;;;;6143287;23;20024;-82
2022/12/31 18:48:08;;;;;;;0.10;0.10;;;;;;;;;;6143365;23;20013;-80
2022/12/31 18:50:35;;;;;;;5.47;2.45;;;;;;;;;;6167190;23;20075;-80
2022/12/31 18:53:01;;;;;;;5.90;1.42;;;;;;;;;;6172849;23;20096;-79
2022/12/31 18:55:33;;;;;;;0.95;0.95;;;;;;;;;;6167371;23;20025;-82
2022/12/31 18:57:59;;;;;;;0.25;0.25;;;;;;;;;;6138279;23;20116;-81
2022/12/31 19:00:25;;;;;;;0.95;0.95;;;;;;;;;;6141763;23;20120;-79
2022/12/31 19:02:51;;;;;;;10.50;5.32;;;;;;;;;;6165027;23;20028;-80
2022/12/31 19:05:22;;;;;;;4.15;2.08;;;;;;;;;;6142958;23;20025;-79
2022/12/31 19:07:48;;;;;;;0.20;0.20;;;;;;;;;;6142221;23;20326;-79
2022/12/31 19:10:15;;;;;;;0.47;0.47;;;;;;;;;;6139993;23;20013;-80
2022/12/31 19:12:41;;;;;;;1.92;1.83;;;;;;;;;;6139085;23;20080;-80
2022/12/31 19:15:28;;;;;;;3.35;3.15;;;;;;;;;;6166632;23;20138;-80
2022/12/31 19:17:54;;;;;;;2.55;2.40;;;;;;;;;;6164718;23;20017;-81
2022/12/31 19:20:20;;;;;;;0.80;0.80;;;;;;;;;;6139360;23;20017;-80
2022/12/31 19:22:46;;;;;;;1.00;1.00;;;;;;;;;;6166959;23;20361;-80
2022/12/31 19:25:16;;;;;;;1.60;1.02;;;;;;;;;;6143091;23;20349;-80
2022/12/31 19:27:42;;;;;;;1.20;1.10;;;;;;;;;;6166319;23;20017;-80